createdAt,value
2018-01-06T00:01:07.432Z,4.33
2018-01-06T00:03:42.650Z,4.00
2018-01-06T00:06:17.059Z,4.12
2018-01-06T00:08:52.291Z,4.32
2018-01-06T00:11:27.864Z,4.60
2018-01-06T00:14:03.494Z,3.47
2018-01-06T00:16:39.103Z,4.73
2018-01-06T00:19:13.843Z,3.40
2018-01-06T00:21:48.726Z,4.53
2018-01-06T00:24:23.705Z,3.80
2018-01-06T00:26:58.625Z,3.80
2018-01-06T00:29:33.771Z,4.55
2018-01-06T00:32:08.565Z,3.67
2018-01-06T00:34:43.239Z,4.27
2018-01-06T00:37:18.090Z,4.67
2018-01-06T00:39:52.919Z,4.80
2018-01-06T00:42:28.031Z,4.50
2018-01-06T00:45:02.794Z,3.83
2018-01-06T00:47:37.754Z,4.90
2018-01-06T00:50:12.837Z,4.80
2018-01-06T00:52:47.562Z,4.00
2018-01-06T00:55:22.763Z,5.33
2018-01-06T00:57:57.855Z,4.10
2018-01-06T01:00:32.914Z,3.90
2018-01-06T01:03:07.725Z,3.80
2018-01-06T01:05:42.859Z,5.25
2018-01-06T01:08:17.754Z,4.33
2018-01-06T01:10:52.747Z,4.90
2018-01-06T01:13:27.989Z,5.97
2018-01-06T01:16:03.639Z,4.97
2018-01-06T01:18:37.897Z,7.07
2018-01-06T01:21:13.016Z,7.10
2018-01-06T01:23:48.188Z,7.73
2018-01-06T01:26:23.295Z,7.47
2018-01-06T01:28:58.195Z,7.00
2018-01-06T01:31:32.973Z,6.50
2018-01-06T01:34:07.818Z,7.60
2018-01-06T01:36:42.977Z,6.43
2018-01-06T01:39:17.925Z,6.80
2018-01-06T01:41:52.814Z,6.47
2018-01-06T01:44:28.094Z,7.90
2018-01-06T01:47:02.818Z,8.80
2018-01-06T01:49:37.811Z,7.00
2018-01-06T01:52:12.747Z,7.63
2018-01-06T01:54:47.742Z,7.73
2018-01-06T01:57:22.828Z,7.50
2018-01-06T01:59:57.953Z,6.90
2018-01-06T02:02:32.959Z,7.07
2018-01-06T02:05:07.839Z,7.67
2018-01-06T02:07:43.115Z,8.17
2018-01-06T02:10:18.515Z,6.93
2018-01-06T02:12:53.631Z,7.35
2018-01-06T02:15:28.479Z,6.87
2018-01-06T02:18:03.328Z,7.50
2018-01-06T02:20:38.994Z,7.00
2018-01-06T02:23:13.981Z,7.40
2018-01-06T02:25:48.822Z,7.93
2018-01-06T02:28:23.887Z,8.80
2018-01-06T02:30:58.863Z,7.57
2018-01-06T02:33:33.884Z,7.50
2018-01-06T02:36:09.028Z,7.80
2018-01-06T02:38:44.270Z,7.90
2018-01-06T02:41:18.966Z,5.87
2018-01-06T02:43:53.569Z,7.43
2018-01-06T02:46:28.390Z,8.23
2018-01-06T02:49:03.914Z,8.48
2018-01-06T02:51:39.028Z,8.50
2018-01-06T02:54:14.038Z,8.40
2018-01-06T02:56:48.953Z,8.20
2018-01-06T02:59:23.931Z,7.12
2018-01-06T03:01:58.880Z,8.90
2018-01-06T03:04:33.967Z,8.70
2018-01-06T03:07:09.046Z,8.90
2018-01-06T03:09:44.250Z,7.97
2018-01-06T03:12:19.197Z,8.43
2018-01-06T03:14:54.136Z,7.73
2018-01-06T03:17:29.187Z,7.70
2018-01-06T03:20:04.094Z,8.30
2018-01-06T03:22:39.210Z,8.65
2018-01-06T03:25:14.075Z,9.30
2018-01-06T03:27:49.231Z,8.73
2018-01-06T03:30:24.239Z,8.93
2018-01-06T03:32:59.310Z,8.43
2018-01-06T03:35:34.409Z,9.33
2018-01-06T03:38:09.296Z,8.90
2018-01-06T03:40:44.399Z,8.83
2018-01-06T03:43:19.483Z,8.37
2018-01-06T03:45:54.574Z,8.50
2018-01-06T03:48:29.842Z,8.40
2018-01-06T03:51:04.756Z,8.50
2018-01-06T03:53:40.054Z,8.13
2018-01-06T03:56:14.707Z,9.97
2018-01-06T03:58:50.168Z,9.00
2018-01-06T04:01:25.443Z,8.90
2018-01-06T04:04:00.315Z,10.73
2018-01-06T04:06:36.583Z,9.00
2018-01-06T04:09:11.658Z,9.87
2018-01-06T04:11:46.304Z,10.37
2018-01-06T04:14:21.598Z,9.27
2018-01-06T04:16:56.416Z,10.00
2018-01-06T04:19:31.484Z,9.60
2018-01-06T04:22:06.158Z,9.50
2018-01-06T04:24:41.463Z,8.27
2018-01-06T04:27:16.580Z,10.07
2018-01-06T04:29:52.226Z,9.47
2018-01-06T04:32:28.279Z,9.52
2018-01-06T04:35:03.292Z,9.77
2018-01-06T04:37:37.674Z,9.80
2018-01-06T04:40:12.682Z,7.63
2018-01-06T04:42:47.591Z,9.13
2018-01-06T04:45:22.546Z,10.97
2018-01-06T04:47:57.747Z,9.93
2018-01-06T04:50:32.520Z,9.13
2018-01-06T04:53:07.163Z,10.13
2018-01-06T04:55:42.311Z,7.97
2018-01-06T04:58:17.355Z,5.70
2018-01-06T05:00:52.234Z,10.23
2018-01-06T05:03:26.918Z,9.33
2018-01-06T05:06:01.989Z,10.30
2018-01-06T05:08:36.863Z,10.47
2018-01-06T05:11:12.254Z,9.50
2018-01-06T05:13:47.205Z,10.00
2018-01-06T05:16:21.951Z,9.70
2018-01-06T05:18:56.811Z,9.63
2018-01-06T05:21:32.010Z,9.67
2018-01-06T05:24:06.542Z,10.47
2018-01-06T05:26:40.893Z,9.40
2018-01-06T05:29:15.906Z,10.70
2018-01-06T05:31:50.867Z,10.37
2018-01-06T05:34:25.939Z,11.40
2018-01-06T05:37:01.025Z,9.53
2018-01-06T05:39:35.755Z,9.10
2018-01-06T05:42:10.506Z,9.60
2018-01-06T05:44:45.129Z,10.27
2018-01-06T05:47:20.523Z,10.50
2018-01-06T05:49:55.580Z,10.77
2018-01-06T05:52:30.835Z,9.73
2018-01-06T05:55:05.742Z,10.30
2018-01-06T05:57:41.274Z,11.33
2018-01-06T06:00:15.590Z,11.40
2018-01-06T06:02:50.758Z,13.30
2018-01-06T06:05:25.694Z,12.63
2018-01-06T06:08:00.614Z,13.33
2018-01-06T06:10:35.794Z,14.47
2018-01-06T06:13:10.711Z,14.33
2018-01-06T06:15:45.706Z,14.53
2018-01-06T06:18:20.660Z,16.27
2018-01-06T06:20:55.543Z,14.80
2018-01-06T06:23:30.501Z,15.65
2018-01-06T06:26:05.458Z,18.55
2018-01-06T06:28:40.339Z,16.10
2018-01-06T06:31:14.856Z,15.80
2018-01-06T06:33:49.943Z,12.40
2018-01-06T06:36:24.742Z,11.17
2018-01-06T06:38:59.646Z,11.57
2018-01-06T06:41:34.790Z,11.40
2018-01-06T06:44:09.183Z,10.10
2018-01-06T06:46:43.957Z,10.97
2018-01-06T06:49:19.583Z,9.95
2018-01-06T06:51:54.636Z,11.60
2018-01-06T06:54:29.684Z,10.10
2018-01-06T06:57:04.431Z,11.57
2018-01-06T06:59:39.310Z,12.10
2018-01-06T07:02:14.764Z,10.50
2018-01-06T07:04:49.771Z,10.30
2018-01-06T07:07:24.846Z,9.90
2018-01-06T07:09:59.871Z,11.17
2018-01-06T07:12:35.101Z,12.87
2018-01-06T07:15:10.159Z,11.37
2018-01-06T07:17:45.047Z,11.03
2018-01-06T07:20:19.803Z,10.40
2018-01-06T07:22:54.715Z,13.77
2018-01-06T07:25:29.881Z,12.50
2018-01-06T07:28:04.774Z,9.82
2018-01-06T07:30:39.309Z,11.53
2018-01-06T07:33:14.301Z,12.57
2018-01-06T07:35:49.826Z,11.37
2018-01-06T07:38:24.816Z,9.63
2018-01-06T07:40:59.826Z,11.77
2018-01-06T07:43:35.011Z,12.40
2018-01-06T07:46:10.203Z,12.63
2018-01-06T07:48:45.103Z,12.57
2018-01-06T07:51:20.026Z,13.03
2018-01-06T07:53:54.837Z,12.90
2018-01-06T07:56:30.600Z,11.87
2018-01-06T07:59:05.868Z,12.40
2018-01-06T08:01:41.039Z,11.85
2018-01-06T08:04:15.968Z,13.93
2018-01-06T08:06:50.909Z,12.33
2018-01-06T08:09:25.731Z,12.50
2018-01-06T08:12:00.409Z,12.40
2018-01-06T08:14:35.301Z,13.20
2018-01-06T08:17:10.100Z,13.50
2018-01-06T08:19:44.866Z,11.65
2018-01-06T08:22:20.053Z,12.93
2018-01-06T08:24:55.030Z,13.62
2018-01-06T08:27:30.296Z,12.17
2018-01-06T08:30:04.660Z,12.70
2018-01-06T08:32:40.117Z,13.38
2018-01-06T08:35:14.803Z,13.70
2018-01-06T08:37:50.022Z,14.97
2018-01-06T08:40:24.710Z,22.17
2018-01-06T08:42:59.646Z,28.33
2018-01-06T08:45:34.439Z,28.50
2018-01-06T08:48:09.456Z,26.87
2018-01-06T08:50:44.451Z,21.83
2018-01-06T08:53:19.432Z,19.50
2018-01-06T08:55:54.559Z,17.27
2018-01-06T08:58:29.586Z,14.10
2018-01-06T09:01:04.163Z,13.93
2018-01-06T09:03:39.148Z,13.80
2018-01-06T09:06:14.160Z,13.57
2018-01-06T09:08:49.143Z,13.17
2018-01-06T09:11:24.224Z,14.20
2018-01-06T09:13:59.246Z,14.07
2018-01-06T09:16:34.526Z,13.60
2018-01-06T09:19:09.616Z,13.77
2018-01-06T09:21:44.718Z,13.13
2018-01-06T09:24:20.087Z,13.07
2018-01-06T09:26:54.714Z,13.60
2018-01-06T09:29:30.378Z,13.40
2018-01-06T09:32:05.798Z,13.87
2018-01-06T09:34:40.742Z,13.53
2018-01-06T09:37:16.149Z,13.73
2018-01-06T09:39:51.161Z,13.70
2018-01-06T09:42:26.313Z,11.80
2018-01-06T09:45:01.295Z,13.20
2018-01-06T09:47:36.474Z,13.00
2018-01-06T09:50:11.133Z,13.57
2018-01-06T09:52:46.063Z,14.10
2018-01-06T09:55:20.594Z,17.10
2018-01-06T09:57:55.536Z,18.90
2018-01-06T10:00:30.698Z,18.53
2018-01-06T10:03:05.731Z,18.73
2018-01-06T10:05:41.384Z,16.08
2018-01-06T10:08:16.810Z,15.67
2018-01-06T10:10:51.437Z,15.33
2018-01-06T10:13:26.573Z,13.17
2018-01-06T10:16:01.551Z,13.80
2018-01-06T10:18:36.615Z,16.20
2018-01-06T10:21:11.299Z,17.17
2018-01-06T10:23:46.917Z,45.37
2018-01-06T10:26:21.755Z,14.80
2018-01-06T10:28:56.727Z,13.73
2018-01-06T10:31:31.719Z,12.10
2018-01-06T10:34:09.640Z,12.52
2018-01-06T10:36:47.728Z,12.37
2018-01-06T10:39:22.993Z,12.77
2018-01-06T10:41:59.028Z,14.93
2018-01-06T10:44:33.649Z,16.00
2018-01-06T10:47:08.988Z,13.18
2018-01-06T10:49:44.125Z,11.60
2018-01-06T10:52:19.402Z,12.57
2018-01-06T10:54:54.984Z,11.27
2018-01-06T10:57:29.728Z,12.00
2018-01-06T11:00:04.296Z,13.50
2018-01-06T11:02:39.086Z,13.77
2018-01-06T11:05:14.620Z,12.37
2018-01-06T11:07:49.703Z,11.50
2018-01-06T11:10:24.959Z,12.23
2018-01-06T11:13:00.310Z,11.70
2018-01-06T11:15:35.615Z,13.57
2018-01-06T11:18:10.991Z,12.45
2018-01-06T11:20:46.107Z,12.73
2018-01-06T11:23:21.892Z,12.97
2018-01-06T11:25:56.964Z,11.70
2018-01-06T11:28:31.736Z,11.63
2018-01-06T11:31:06.966Z,12.00
2018-01-06T11:33:41.948Z,12.40
2018-01-06T11:36:16.717Z,12.97
2018-01-06T11:38:51.220Z,11.97
2018-01-06T11:41:26.412Z,12.00
2018-01-06T11:44:01.808Z,12.82
2018-01-06T11:46:37.083Z,12.63
2018-01-06T11:49:12.228Z,11.67
2018-01-06T11:51:47.764Z,13.57
2018-01-06T11:54:22.747Z,12.10
2018-01-06T11:56:59.052Z,13.18
2018-01-06T11:59:34.216Z,11.13
2018-01-06T12:02:09.368Z,11.83
2018-01-06T12:04:44.448Z,13.00
2018-01-06T12:07:19.871Z,13.07
2018-01-06T12:09:54.276Z,12.33
2018-01-06T12:12:29.475Z,9.80
2018-01-06T12:15:05.077Z,10.70
2018-01-06T12:17:39.979Z,12.23
2018-01-06T12:20:15.177Z,12.90
2018-01-06T12:22:50.707Z,13.05
2018-01-06T12:25:25.404Z,13.17
2018-01-06T12:28:00.785Z,12.18
2018-01-06T12:30:35.904Z,12.27
2018-01-06T12:33:10.925Z,11.90
2018-01-06T12:35:46.162Z,12.27
2018-01-06T12:38:21.470Z,11.07
2018-01-06T12:40:56.616Z,11.70
2018-01-06T12:43:31.919Z,11.10
2018-01-06T12:46:06.880Z,12.37
2018-01-06T12:48:41.972Z,11.17
2018-01-06T12:51:17.241Z,29.80
2018-01-06T12:53:52.316Z,15.77
2018-01-06T12:56:27.273Z,10.93
2018-01-06T12:59:02.267Z,12.40
2018-01-06T13:01:37.376Z,11.13
2018-01-06T13:04:12.472Z,12.50
2018-01-06T13:06:47.980Z,12.15
2018-01-06T13:09:23.056Z,11.80
2018-01-06T13:11:59.312Z,12.50
2018-01-06T13:14:34.397Z,11.80
2018-01-06T13:17:09.518Z,12.30
2018-01-06T13:19:44.903Z,11.80
2018-01-06T13:22:20.054Z,13.30
2018-01-06T13:24:55.197Z,11.30
2018-01-06T13:27:30.116Z,12.10
2018-01-06T13:30:04.797Z,13.07
2018-01-06T13:32:39.297Z,11.70
2018-01-06T13:35:14.451Z,13.07
2018-01-06T13:37:49.069Z,13.37
2018-01-06T13:40:24.139Z,12.53
2018-01-06T13:42:59.399Z,13.40
2018-01-06T13:45:34.093Z,11.77
2018-01-06T13:48:09.210Z,13.40
2018-01-06T13:50:44.284Z,12.63
2018-01-06T13:53:19.285Z,13.40
2018-01-06T13:55:54.351Z,13.90
2018-01-06T13:58:29.526Z,11.90
2018-01-06T14:01:05.172Z,13.68
2018-01-06T14:03:39.856Z,13.13
2018-01-06T14:06:15.171Z,13.13
2018-01-06T14:08:50.190Z,14.00
2018-01-06T14:11:25.114Z,13.90
2018-01-06T14:14:00.239Z,13.27
2018-01-06T14:16:35.531Z,15.03
2018-01-06T14:19:10.803Z,15.00
2018-01-06T14:21:45.683Z,13.50
2018-01-06T14:24:21.181Z,14.53
2018-01-06T14:26:56.339Z,16.60
2018-01-06T14:29:31.325Z,15.23
2018-01-06T14:32:06.521Z,15.60
2018-01-06T14:34:41.406Z,15.47
2018-01-06T14:37:16.435Z,16.50
2018-01-06T14:39:51.311Z,14.77
2018-01-06T14:42:25.885Z,14.83
2018-01-06T14:45:01.512Z,14.87
2018-01-06T14:47:36.484Z,16.17
2018-01-06T14:50:11.561Z,15.77
2018-01-06T14:52:46.636Z,16.87
2018-01-06T14:55:21.734Z,15.10
2018-01-06T14:57:56.824Z,14.93
2018-01-06T15:00:31.432Z,15.43
2018-01-06T15:03:06.256Z,15.85
2018-01-06T15:05:41.377Z,15.40
2018-01-06T15:08:16.377Z,16.43
2018-01-06T15:10:51.445Z,17.00
2018-01-06T15:13:26.684Z,15.80
2018-01-06T15:16:02.077Z,17.70
2018-01-06T15:18:37.433Z,17.10
2018-01-06T15:21:12.676Z,15.67
2018-01-06T15:23:48.267Z,18.12
2018-01-06T15:26:23.370Z,16.83
2018-01-06T15:28:59.669Z,17.58
2018-01-06T15:31:34.044Z,18.37
2018-01-06T15:34:09.614Z,16.87
2018-01-06T15:36:44.699Z,17.80
2018-01-06T15:39:19.805Z,17.13
2018-01-06T15:41:54.603Z,17.30
2018-01-06T15:44:29.581Z,17.07
2018-01-06T15:47:04.337Z,18.60
2018-01-06T15:49:38.734Z,23.10
2018-01-06T15:52:16.097Z,26.02
2018-01-06T15:54:49.520Z,22.42
2018-01-06T15:57:24.629Z,23.60
2018-01-06T15:59:59.986Z,24.30
2018-01-06T16:02:34.661Z,25.20
2018-01-06T16:05:09.852Z,25.17
2018-01-06T16:07:44.832Z,34.30
2018-01-06T16:10:19.826Z,44.13
2018-01-06T16:12:54.488Z,42.60
2018-01-06T16:15:29.548Z,49.20
2018-01-06T16:18:04.552Z,42.53
2018-01-06T16:20:39.788Z,37.73
2018-01-06T16:23:14.890Z,29.97
2018-01-06T16:25:50.071Z,28.00
2018-01-06T16:28:24.556Z,21.97
2018-01-06T16:30:59.902Z,22.37
2018-01-06T16:33:34.679Z,24.57
2018-01-06T16:36:09.861Z,24.45
2018-01-06T16:38:44.247Z,22.27
2018-01-06T16:41:19.864Z,19.57
2018-01-06T16:43:54.940Z,16.93
2018-01-06T16:46:30.132Z,15.00
2018-01-06T16:49:05.852Z,12.57
2018-01-06T16:51:40.832Z,14.97
2018-01-06T16:54:16.190Z,12.00
2018-01-06T16:56:51.066Z,12.33
2018-01-06T16:59:25.930Z,11.10
2018-01-06T17:02:00.689Z,10.20
2018-01-06T17:04:35.888Z,11.37
2018-01-06T17:07:10.846Z,11.93
2018-01-06T17:09:46.132Z,12.50
2018-01-06T17:12:21.103Z,11.50
2018-01-06T17:14:56.665Z,10.73
2018-01-06T17:17:31.665Z,11.23
2018-01-06T17:20:06.960Z,9.83
2018-01-06T17:22:41.942Z,9.00
2018-01-06T17:25:16.321Z,11.77
2018-01-06T17:27:50.783Z,10.10
2018-01-06T17:30:26.120Z,10.57
2018-01-06T17:33:01.928Z,10.93
2018-01-06T17:35:36.823Z,10.33
2018-01-06T17:38:11.770Z,10.55
2018-01-06T17:40:46.830Z,10.50
2018-01-06T17:43:21.792Z,10.88
2018-01-06T17:45:56.804Z,10.97
2018-01-06T17:48:31.896Z,11.37
2018-01-06T17:51:07.562Z,11.63
2018-01-06T17:53:42.236Z,11.53
2018-01-06T17:56:18.004Z,11.57
2018-01-06T17:58:52.891Z,11.53
2018-01-06T18:01:27.321Z,11.17
2018-01-06T18:04:02.844Z,10.33
2018-01-06T18:06:38.038Z,10.77
2018-01-06T18:09:13.063Z,10.40
2018-01-06T18:11:48.140Z,10.13
2018-01-06T18:14:22.945Z,9.70
2018-01-06T18:16:58.053Z,8.50
2018-01-06T18:19:32.402Z,8.23
2018-01-06T18:22:07.192Z,8.37
2018-01-06T18:24:42.048Z,8.73
2018-01-06T18:27:16.687Z,7.85
2018-01-06T18:29:51.843Z,7.87
2018-01-06T18:32:26.824Z,7.97
2018-01-06T18:35:01.847Z,8.07
2018-01-06T18:37:37.016Z,7.50
2018-01-06T18:40:12.222Z,8.50
2018-01-06T18:42:47.004Z,8.50
2018-01-06T18:45:21.966Z,7.67
2018-01-06T18:47:57.129Z,7.77
2018-01-06T18:50:32.327Z,7.13
2018-01-06T18:53:07.652Z,6.97
2018-01-06T18:55:43.061Z,7.10
2018-01-06T18:58:18.139Z,6.72
2018-01-06T19:00:53.053Z,6.80
2018-01-06T19:03:27.837Z,5.90
2018-01-06T19:06:02.572Z,5.80
2018-01-06T19:08:37.994Z,6.00
2018-01-06T19:11:13.215Z,6.30
2018-01-06T19:13:48.969Z,6.93
2018-01-06T19:16:23.956Z,7.10
2018-01-06T19:19:00.285Z,6.68
2018-01-06T19:21:35.160Z,5.17
2018-01-06T19:24:09.986Z,5.70
2018-01-06T19:26:45.096Z,5.90
2018-01-06T19:29:20.056Z,5.75
2018-01-06T19:31:55.121Z,6.80
2018-01-06T19:34:30.192Z,4.77
2018-01-06T19:37:05.287Z,5.20
2018-01-06T19:39:40.085Z,5.07
2018-01-06T19:42:15.321Z,4.45
2018-01-06T19:44:50.283Z,4.63
2018-01-06T19:47:25.153Z,6.40
2018-01-06T19:50:00.553Z,6.90
2018-01-06T19:52:35.584Z,6.50
2018-01-06T19:55:10.827Z,7.20
2018-01-06T19:57:46.356Z,6.70
2018-01-06T20:00:21.280Z,6.73
2018-01-06T20:02:56.157Z,6.40
2018-01-06T20:05:31.510Z,7.67
2018-01-06T20:08:06.620Z,7.80
2018-01-06T20:10:41.144Z,8.00
2018-01-06T20:13:16.165Z,6.90
2018-01-06T20:15:50.715Z,6.50
2018-01-06T20:18:26.167Z,5.78
2018-01-06T20:21:01.128Z,7.12
2018-01-06T20:23:36.278Z,6.53
2018-01-06T20:26:11.429Z,8.57
2018-01-06T20:28:46.387Z,6.47
2018-01-06T20:31:21.404Z,6.77
2018-01-06T20:33:56.709Z,6.10
2018-01-06T20:36:31.687Z,6.07
2018-01-06T20:39:06.660Z,5.13
2018-01-06T20:41:41.622Z,6.33
2018-01-06T20:44:16.588Z,6.60
2018-01-06T20:46:51.492Z,6.57
2018-01-06T20:49:26.381Z,6.73
2018-01-06T20:52:01.380Z,6.80
2018-01-06T20:54:36.479Z,8.00
2018-01-06T20:57:11.730Z,8.73
2018-01-06T20:59:46.611Z,7.50
2018-01-06T21:02:21.592Z,7.90
2018-01-06T21:04:56.804Z,8.40
2018-01-06T21:07:32.137Z,7.07
2018-01-06T21:10:07.254Z,7.70
2018-01-06T21:12:41.638Z,7.23
2018-01-06T21:15:16.403Z,7.12
2018-01-06T21:17:51.165Z,7.97
2018-01-06T21:20:26.457Z,8.37
2018-01-06T21:23:01.419Z,8.13
2018-01-06T21:25:36.344Z,7.57
2018-01-06T21:28:10.741Z,8.27
2018-01-06T21:30:45.512Z,8.50
2018-01-06T21:33:20.511Z,7.70
2018-01-06T21:35:55.299Z,6.53
2018-01-06T21:38:30.437Z,8.30
2018-01-06T21:41:06.111Z,8.23
2018-01-06T21:43:40.937Z,7.90
2018-01-06T21:46:16.519Z,8.63
2018-01-06T21:48:51.562Z,7.07
2018-01-06T21:51:26.565Z,8.40
2018-01-06T21:54:01.774Z,8.03
2018-01-06T21:56:36.473Z,7.77
2018-01-06T21:59:11.690Z,8.38
2018-01-06T22:01:46.763Z,7.63
2018-01-06T22:04:22.026Z,8.80
2018-01-06T22:06:56.534Z,8.97
2018-01-06T22:09:31.612Z,7.97
2018-01-06T22:12:06.879Z,8.80
2018-01-06T22:14:41.532Z,9.15
2018-01-06T22:17:16.798Z,8.20
2018-01-06T22:19:51.912Z,8.37
2018-01-06T22:22:27.180Z,8.07
2018-01-06T22:25:02.781Z,8.80
2018-01-06T22:27:37.776Z,9.37
2018-01-06T22:30:12.888Z,8.90
2018-01-06T22:32:47.980Z,7.77
2018-01-06T22:35:22.538Z,10.03
2018-01-06T22:37:57.886Z,10.20
2018-01-06T22:40:32.690Z,9.57
2018-01-06T22:43:07.883Z,9.07
2018-01-06T22:45:42.639Z,9.70
2018-01-06T22:48:17.724Z,9.30
2018-01-06T22:50:52.599Z,8.47
2018-01-06T22:53:27.825Z,9.67
2018-01-06T22:56:02.784Z,8.05
2018-01-06T22:58:37.716Z,8.63
2018-01-06T23:01:12.500Z,8.47
2018-01-06T23:03:47.672Z,8.47
2018-01-06T23:06:22.667Z,8.80
2018-01-06T23:08:57.887Z,7.73
2018-01-06T23:11:33.186Z,8.87
2018-01-06T23:14:07.836Z,8.45
2018-01-06T23:16:42.822Z,8.93
2018-01-06T23:19:17.787Z,6.60
2018-01-06T23:21:52.799Z,6.33
2018-01-06T23:24:27.557Z,6.82
2018-01-06T23:27:02.930Z,7.67
2018-01-06T23:29:37.991Z,6.13
2018-01-06T23:32:13.027Z,7.23
2018-01-06T23:34:47.679Z,7.00
2018-01-06T23:37:22.755Z,6.13
2018-01-06T23:39:58.009Z,6.40
2018-01-06T23:42:32.870Z,5.93
2018-01-06T23:45:08.192Z,5.97
2018-01-06T23:47:43.150Z,6.23
2018-01-06T23:50:18.736Z,5.70
2018-01-06T23:52:53.214Z,5.10
2018-01-06T23:55:27.810Z,5.33
2018-01-06T23:58:03.064Z,4.63
